sensor_id;sensor_type;location;lat;lon;timestamp;temperature;humidity
1602;DHT22;794;48.592;9.634;2023-04-06T00:02:04;-1.20;1.00
1602;DHT22;794;48.592;9.634;2023-04-06T00:04:36;-1.10;1.00
1602;DHT22;794;48.592;9.634;2023-04-06T00:07:04;-1.00;1.00
1602;DHT22;794;48.592;9.634;2023-04-06T00:09:42;-1.20;1.00
1602;DHT22;794;48.592;9.634;2023-04-06T00:12:09;-1.40;1.00
1602;DHT22;794;48.592;9.634;2023-04-06T00:14:52;-1.00;1.00
1602;DHT22;794;48.592;9.634;2023-04-06T00:17:35;-1.20;1.00
1602;DHT22;794;48.592;9.634;2023-04-06T00:20:03;-1.20;1.00
1602;DHT22;794;48.592;9.634;2023-04-06T00:22:31;-1.30;1.00
1602;DHT22;794;48.592;9.634;2023-04-06T00:24:59;-1.10;1.00
1602;DHT22;794;48.592;9.634;2023-04-06T00:27:26;-1.40;1.00
1602;DHT22;794;48.592;9.634;2023-04-06T00:29:53;-1.20;1.00
1602;DHT22;794;48.592;9.634;2023-04-06T00:32:20;-1.10;1.00
1602;DHT22;794;48.592;9.634;2023-04-06T00:34:47;-1.20;1.00
1602;DHT22;794;48.592;9.634;2023-04-06T00:37:16;-1.10;1.00
1602;DHT22;794;48.592;9.634;2023-04-06T00:39:58;-0.80;1.00
1602;DHT22;794;48.592;9.634;2023-04-06T00:42:26;-1.10;1.00
1602;DHT22;794;48.592;9.634;2023-04-06T00:44:55;-1.30;1.00
1602;DHT22;794;48.592;9.634;2023-04-06T00:47:25;-1.10;1.00
1602;DHT22;794;48.592;9.634;2023-04-06T00:49:54;-1.60;1.00
1602;DHT22;794;48.592;9.634;2023-04-06T00:52:21;-1.40;1.00
1602;DHT22;794;48.592;9.634;2023-04-06T00:54:49;-1.40;1.00
1602;DHT22;794;48.592;9.634;2023-04-06T00:57:18;-1.30;1.00
1602;DHT22;794;48.592;9.634;2023-04-06T00:59:45;-1.30;1.00
1602;DHT22;794;48.592;9.634;2023-04-06T01:02:12;-1.80;1.00
1602;DHT22;794;48.592;9.634;2023-04-06T01:04:40;-1.50;1.00
1602;DHT22;794;48.592;9.634;2023-04-06T01:07:07;-1.60;1.00
1602;DHT22;794;48.592;9.634;2023-04-06T01:09:35;-1.60;1.00
1602;DHT22;794;48.592;9.634;2023-04-06T01:12:02;-1.30;1.00
1602;DHT22;794;48.592;9.634;2023-04-06T01:14:31;-1.50;1.00
1602;DHT22;794;48.592;9.634;2023-04-06T01:16:59;-1.40;1.00
1602;DHT22;794;48.592;9.634;2023-04-06T01:19:27;-1.30;1.00
1602;DHT22;794;48.592;9.634;2023-04-06T01:21:55;-1.30;1.00
1602;DHT22;794;48.592;9.634;2023-04-06T01:24:24;-1.30;1.00
1602;DHT22;794;48.592;9.634;2023-04-06T01:26:52;-1.40;1.00
1602;DHT22;794;48.592;9.634;2023-04-06T01:29:19;-0.40;1.00
1602;DHT22;794;48.592;9.634;2023-04-06T01:31:46;-1.30;1.00
1602;DHT22;794;48.592;9.634;2023-04-06T01:34:13;-1.50;1.00
1602;DHT22;794;48.592;9.634;2023-04-06T01:36:40;-1.60;1.00
1602;DHT22;794;48.592;9.634;2023-04-06T01:39:07;-1.50;1.00
1602;DHT22;794;48.592;9.634;2023-04-06T01:41:35;-1.50;1.00
1602;DHT22;794;48.592;9.634;2023-04-06T01:44:03;-1.50;1.00
1602;DHT22;794;48.592;9.634;2023-04-06T01:46:30;-1.40;1.00
1602;DHT22;794;48.592;9.634;2023-04-06T01:48:57;-1.40;1.00
1602;DHT22;794;48.592;9.634;2023-04-06T01:51:24;-1.90;1.00
1602;DHT22;794;48.592;9.634;2023-04-06T01:53:51;-1.70;1.00
1602;DHT22;794;48.592;9.634;2023-04-06T01:56:23;-1.80;1.00
1602;DHT22;794;48.592;9.634;2023-04-06T01:58:52;-1.50;1.00
1602;DHT22;794;48.592;9.634;2023-04-06T02:01:19;-1.70;1.00
1602;DHT22;794;48.592;9.634;2023-04-06T02:03:46;-1.70;1.00
1602;DHT22;794;48.592;9.634;2023-04-06T02:06:13;-1.60;1.00
1602;DHT22;794;48.592;9.634;2023-04-06T02:08:40;-3.20;1.00
1602;DHT22;794;48.592;9.634;2023-04-06T02:11:07;-1.90;1.00
1602;DHT22;794;48.592;9.634;2023-04-06T02:13:34;-1.80;1.00
1602;DHT22;794;48.592;9.634;2023-04-06T02:16:03;-1.60;1.00
1602;DHT22;794;48.592;9.634;2023-04-06T02:18:30;-1.80;1.00
1602;DHT22;794;48.592;9.634;2023-04-06T02:20:57;-1.70;1.00
1602;DHT22;794;48.592;9.634;2023-04-06T02:23:24;-1.50;1.00
1602;DHT22;794;48.592;9.634;2023-04-06T02:25:52;-2.00;1.00
1602;DHT22;794;48.592;9.634;2023-04-06T02:28:19;-1.90;1.00
1602;DHT22;794;48.592;9.634;2023-04-06T02:30:46;-1.50;1.00
1602;DHT22;794;48.592;9.634;2023-04-06T02:33:14;-1.90;1.00
1602;DHT22;794;48.592;9.634;2023-04-06T02:35:41;-1.70;1.00
1602;DHT22;794;48.592;9.634;2023-04-06T02:38:08;-2.00;1.00
1602;DHT22;794;48.592;9.634;2023-04-06T02:40:35;-1.90;1.00
1602;DHT22;794;48.592;9.634;2023-04-06T02:43:02;-1.70;1.00
1602;DHT22;794;48.592;9.634;2023-04-06T02:45:29;-2.00;1.00
1602;DHT22;794;48.592;9.634;2023-04-06T02:47:57;-1.50;1.00
1602;DHT22;794;48.592;9.634;2023-04-06T02:50:25;-2.10;1.00
1602;DHT22;794;48.592;9.634;2023-04-06T02:52:53;-1.70;1.00
1602;DHT22;794;48.592;9.634;2023-04-06T02:55:20;-1.50;1.00
1602;DHT22;794;48.592;9.634;2023-04-06T02:57:47;-2.30;1.00
1602;DHT22;794;48.592;9.634;2023-04-06T03:00:14;-2.30;1.00
1602;DHT22;794;48.592;9.634;2023-04-06T03:02:41;-2.00;1.00
1602;DHT22;794;48.592;9.634;2023-04-06T03:05:08;-2.20;1.00
1602;DHT22;794;48.592;9.634;2023-04-06T03:07:37;-2.00;1.00
1602;DHT22;794;48.592;9.634;2023-04-06T03:10:05;-2.00;1.00
1602;DHT22;794;48.592;9.634;2023-04-06T03:12:32;-1.70;1.00
1602;DHT22;794;48.592;9.634;2023-04-06T03:14:59;-1.90;1.00
1602;DHT22;794;48.592;9.634;2023-04-06T03:17:27;-1.60;1.00
1602;DHT22;794;48.592;9.634;2023-04-06T03:19:54;-1.90;1.00
1602;DHT22;794;48.592;9.634;2023-04-06T03:22:21;-0.90;1.00
1602;DHT22;794;48.592;9.634;2023-04-06T03:24:49;-2.20;1.00
1602;DHT22;794;48.592;9.634;2023-04-06T03:27:16;-2.20;1.00
1602;DHT22;794;48.592;9.634;2023-04-06T03:29:43;-2.00;1.00
1602;DHT22;794;48.592;9.634;2023-04-06T03:32:10;-2.00;1.00
1602;DHT22;794;48.592;9.634;2023-04-06T03:34:38;-2.20;1.00
1602;DHT22;794;48.592;9.634;2023-04-06T03:37:05;-2.10;1.00
1602;DHT22;794;48.592;9.634;2023-04-06T03:39:32;-2.10;1.00
1602;DHT22;794;48.592;9.634;2023-04-06T03:42:02;-2.10;1.00
1602;DHT22;794;48.592;9.634;2023-04-06T03:44:29;-2.30;1.00
1602;DHT22;794;48.592;9.634;2023-04-06T03:46:56;-2.20;1.00
1602;DHT22;794;48.592;9.634;2023-04-06T03:49:23;-2.20;1.00
1602;DHT22;794;48.592;9.634;2023-04-06T03:51:50;-1.90;1.00
1602;DHT22;794;48.592;9.634;2023-04-06T03:54:17;-2.10;1.00
1602;DHT22;794;48.592;9.634;2023-04-06T03:56:44;-1.90;1.00
1602;DHT22;794;48.592;9.634;2023-04-06T03:59:13;-2.20;1.00
1602;DHT22;794;48.592;9.634;2023-04-06T04:01:40;-2.40;1.00
1602;DHT22;794;48.592;9.634;2023-04-06T04:04:07;-2.00;1.00
1602;DHT22;794;48.592;9.634;2023-04-06T04:06:35;-2.00;1.00
1602;DHT22;794;48.592;9.634;2023-04-06T04:09:02;-2.10;1.00
1602;DHT22;794;48.592;9.634;2023-04-06T04:11:29;-2.10;1.00
1602;DHT22;794;48.592;9.634;2023-04-06T04:13:56;-2.30;1.00
1602;DHT22;794;48.592;9.634;2023-04-06T04:16:25;-1.40;1.00
1602;DHT22;794;48.592;9.634;2023-04-06T04:18:52;-2.30;1.00
1602;DHT22;794;48.592;9.634;2023-04-06T04:21:19;-2.50;1.00
1602;DHT22;794;48.592;9.634;2023-04-06T04:23:46;-2.40;1.00
1602;DHT22;794;48.592;9.634;2023-04-06T04:26:13;-2.30;1.00
1602;DHT22;794;48.592;9.634;2023-04-06T04:28:40;-2.30;1.00
1602;DHT22;794;48.592;9.634;2023-04-06T04:31:07;-2.30;1.00
1602;DHT22;794;48.592;9.634;2023-04-06T04:33:36;-2.40;1.00
1602;DHT22;794;48.592;9.634;2023-04-06T04:36:04;-2.30;1.00
1602;DHT22;794;48.592;9.634;2023-04-06T04:38:31;-2.30;1.00
1602;DHT22;794;48.592;9.634;2023-04-06T04:40:58;-2.40;1.00
1602;DHT22;794;48.592;9.634;2023-04-06T04:43:25;-2.20;1.00
1602;DHT22;794;48.592;9.634;2023-04-06T04:45:52;-2.50;1.00
1602;DHT22;794;48.592;9.634;2023-04-06T04:48:19;-2.40;1.00
1602;DHT22;794;48.592;9.634;2023-04-06T04:50:47;-2.40;1.00
1602;DHT22;794;48.592;9.634;2023-04-06T04:53:14;-2.10;1.00
1602;DHT22;794;48.592;9.634;2023-04-06T04:55:41;-1.90;1.00
1602;DHT22;794;48.592;9.634;2023-04-06T04:58:08;-2.30;1.00
1602;DHT22;794;48.592;9.634;2023-04-06T05:00:39;-2.40;1.00
1602;DHT22;794;48.592;9.634;2023-04-06T05:03:06;-1.90;1.00
1602;DHT22;794;48.592;9.634;2023-04-06T05:05:34;-2.10;1.00
1602;DHT22;794;48.592;9.634;2023-04-06T05:08:02;-2.30;1.00
1602;DHT22;794;48.592;9.634;2023-04-06T05:10:30;-2.30;1.00
1602;DHT22;794;48.592;9.634;2023-04-06T05:12:57;-2.00;1.00
1602;DHT22;794;48.592;9.634;2023-04-06T05:15:24;-1.80;1.00
1602;DHT22;794;48.592;9.634;2023-04-06T05:17:51;-1.80;1.00
1602;DHT22;794;48.592;9.634;2023-04-06T05:20:18;-1.90;1.00
1602;DHT22;794;48.592;9.634;2023-04-06T05:22:45;-1.20;1.00
1602;DHT22;794;48.592;9.634;2023-04-06T05:25:14;-1.90;1.00
1602;DHT22;794;48.592;9.634;2023-04-06T05:27:41;-1.70;1.00
1602;DHT22;794;48.592;9.634;2023-04-06T05:30:08;-1.60;1.00
1602;DHT22;794;48.592;9.634;2023-04-06T05:32:35;-1.60;1.00
1602;DHT22;794;48.592;9.634;2023-04-06T05:35:03;-1.60;1.00
1602;DHT22;794;48.592;9.634;2023-04-06T05:37:30;-1.70;1.00
1602;DHT22;794;48.592;9.634;2023-04-06T05:39:57;-1.20;1.00
1602;DHT22;794;48.592;9.634;2023-04-06T05:42:25;-1.30;1.00
1602;DHT22;794;48.592;9.634;2023-04-06T05:44:52;-1.40;1.00
1602;DHT22;794;48.592;9.634;2023-04-06T05:47:19;-1.20;1.00
1602;DHT22;794;48.592;9.634;2023-04-06T05:49:46;-1.00;1.00
1602;DHT22;794;48.592;9.634;2023-04-06T05:52:13;-1.00;1.00
1602;DHT22;794;48.592;9.634;2023-04-06T05:54:40;0.60;1.00
1602;DHT22;794;48.592;9.634;2023-04-06T05:57:08;-0.90;1.00
1602;DHT22;794;48.592;9.634;2023-04-06T05:59:36;-2.10;1.00
1602;DHT22;794;48.592;9.634;2023-04-06T06:02:03;-0.60;1.00
1602;DHT22;794;48.592;9.634;2023-04-06T06:04:31;-0.50;1.00
1602;DHT22;794;48.592;9.634;2023-04-06T06:06:58;-0.30;1.00
1602;DHT22;794;48.592;9.634;2023-04-06T06:09:25;-0.10;1.00
1602;DHT22;794;48.592;9.634;2023-04-06T06:11:52;-0.30;1.00
1602;DHT22;794;48.592;9.634;2023-04-06T06:14:19;0.20;1.00
1602;DHT22;794;48.592;9.634;2023-04-06T06:16:48;0.20;1.00
1602;DHT22;794;48.592;9.634;2023-04-06T06:19:15;0.60;1.00
1602;DHT22;794;48.592;9.634;2023-04-06T06:21:42;0.70;1.00
1602;DHT22;794;48.592;9.634;2023-04-06T06:24:10;0.70;1.00
1602;DHT22;794;48.592;9.634;2023-04-06T06:26:37;0.80;1.00
1602;DHT22;794;48.592;9.634;2023-04-06T06:29:05;0.80;1.00
1602;DHT22;794;48.592;9.634;2023-04-06T06:31:32;0.80;1.00
1602;DHT22;794;48.592;9.634;2023-04-06T06:34:01;1.00;1.00
1602;DHT22;794;48.592;9.634;2023-04-06T06:36:29;1.40;1.00
1602;DHT22;794;48.592;9.634;2023-04-06T06:38:57;1.60;1.00
1602;DHT22;794;48.592;9.634;2023-04-06T06:41:26;1.30;1.00
1602;DHT22;794;48.592;9.634;2023-04-06T06:43:53;1.40;1.00
1602;DHT22;794;48.592;9.634;2023-04-06T06:46:20;1.80;1.00
1602;DHT22;794;48.592;9.634;2023-04-06T06:48:47;1.60;1.00
1602;DHT22;794;48.592;9.634;2023-04-06T06:51:16;2.30;1.00
1602;DHT22;794;48.592;9.634;2023-04-06T06:53:42;2.30;1.00
1602;DHT22;794;48.592;9.634;2023-04-06T06:56:10;2.60;1.00
1602;DHT22;794;48.592;9.634;2023-04-06T06:58:38;2.60;1.00
1602;DHT22;794;48.592;9.634;2023-04-06T07:01:05;3.00;1.00
1602;DHT22;794;48.592;9.634;2023-04-06T07:03:32;3.00;1.00
1602;DHT22;794;48.592;9.634;2023-04-06T07:05:59;3.10;1.00
1602;DHT22;794;48.592;9.634;2023-04-06T07:08:28;3.40;1.00
1602;DHT22;794;48.592;9.634;2023-04-06T07:10:55;3.70;1.00
1602;DHT22;794;48.592;9.634;2023-04-06T07:13:22;3.90;1.00
1602;DHT22;794;48.592;9.634;2023-04-06T07:15:49;5.00;1.00
1602;DHT22;794;48.592;9.634;2023-04-06T07:18:16;7.80;1.00
1602;DHT22;794;48.592;9.634;2023-04-06T07:20:44;11.20;1.00
1602;DHT22;794;48.592;9.634;2023-04-06T07:23:11;13.00;1.00
1602;DHT22;794;48.592;9.634;2023-04-06T07:25:39;14.10;1.00
1602;DHT22;794;48.592;9.634;2023-04-06T07:28:06;16.60;1.00
1602;DHT22;794;48.592;9.634;2023-04-06T07:30:33;18.70;1.00
1602;DHT22;794;48.592;9.634;2023-04-06T07:33:00;20.20;1.00
1602;DHT22;794;48.592;9.634;2023-04-06T07:35:28;21.50;1.00
1602;DHT22;794;48.592;9.634;2023-04-06T07:37:55;21.60;1.00
1602;DHT22;794;48.592;9.634;2023-04-06T07:40:23;22.40;1.00
1602;DHT22;794;48.592;9.634;2023-04-06T07:42:53;23.10;1.00
1602;DHT22;794;48.592;9.634;2023-04-06T07:45:20;19.90;1.00
1602;DHT22;794;48.592;9.634;2023-04-06T07:47:47;18.50;1.00
1602;DHT22;794;48.592;9.634;2023-04-06T07:50:21;16.90;1.00
1602;DHT22;794;48.592;9.634;2023-04-06T07:52:51;17.20;1.00
1602;DHT22;794;48.592;9.634;2023-04-06T07:55:20;19.60;1.00
1602;DHT22;794;48.592;9.634;2023-04-06T07:58:06;18.70;1.00
1602;DHT22;794;48.592;9.634;2023-04-06T08:00:33;20.80;1.00
1602;DHT22;794;48.592;9.634;2023-04-06T08:03:01;21.70;1.00
1602;DHT22;794;48.592;9.634;2023-04-06T08:05:28;25.20;1.00
1602;DHT22;794;48.592;9.634;2023-04-06T08:08:06;24.20;1.00
1602;DHT22;794;48.592;9.634;2023-04-06T08:10:35;24.10;1.00
1602;DHT22;794;48.592;9.634;2023-04-06T08:13:04;19.40;1.00
1602;DHT22;794;48.592;9.634;2023-04-06T08:15:31;19.90;1.00
1602;DHT22;794;48.592;9.634;2023-04-06T08:18:08;20.50;1.00
1602;DHT22;794;48.592;9.634;2023-04-06T08:20:37;18.90;1.00
1602;DHT22;794;48.592;9.634;2023-04-06T08:23:04;18.60;1.00
1602;DHT22;794;48.592;9.634;2023-04-06T08:25:33;18.60;1.00
1602;DHT22;794;48.592;9.634;2023-04-06T08:28:00;18.80;1.00
1602;DHT22;794;48.592;9.634;2023-04-06T08:30:29;19.10;1.00
1602;DHT22;794;48.592;9.634;2023-04-06T08:32:57;17.10;1.00
1602;DHT22;794;48.592;9.634;2023-04-06T08:35:24;15.60;1.00
1602;DHT22;794;48.592;9.634;2023-04-06T08:37:51;17.80;1.00
1602;DHT22;794;48.592;9.634;2023-04-06T08:40:18;20.00;1.00
1602;DHT22;794;48.592;9.634;2023-04-06T08:42:50;20.80;1.00
1602;DHT22;794;48.592;9.634;2023-04-06T08:45:18;19.80;1.00
1602;DHT22;794;48.592;9.634;2023-04-06T08:47:50;20.10;1.00
1602;DHT22;794;48.592;9.634;2023-04-06T08:50:18;19.80;1.00
1602;DHT22;794;48.592;9.634;2023-04-06T08:52:47;20.90;1.00
1602;DHT22;794;48.592;9.634;2023-04-06T08:55:14;20.40;1.00
1602;DHT22;794;48.592;9.634;2023-04-06T08:57:42;20.70;1.00
1602;DHT22;794;48.592;9.634;2023-04-06T09:00:11;20.30;1.00
1602;DHT22;794;48.592;9.634;2023-04-06T09:02:39;20.40;1.00
1602;DHT22;794;48.592;9.634;2023-04-06T09:05:09;20.60;1.00
1602;DHT22;794;48.592;9.634;2023-04-06T09:07:36;19.20;1.00
1602;DHT22;794;48.592;9.634;2023-04-06T09:10:04;18.80;1.00
1602;DHT22;794;48.592;9.634;2023-04-06T09:12:32;17.90;1.00
1602;DHT22;794;48.592;9.634;2023-04-06T09:15:00;18.40;1.00
1602;DHT22;794;48.592;9.634;2023-04-06T09:17:29;19.30;1.00
1602;DHT22;794;48.592;9.634;2023-04-06T09:19:58;19.50;1.00
1602;DHT22;794;48.592;9.634;2023-04-06T09:22:35;19.10;1.00
1602;DHT22;794;48.592;9.634;2023-04-06T09:25:02;18.60;1.00
1602;DHT22;794;48.592;9.634;2023-04-06T09:27:34;18.80;1.00
1602;DHT22;794;48.592;9.634;2023-04-06T09:30:08;18.20;1.00
1602;DHT22;794;48.592;9.634;2023-04-06T09:32:46;15.50;1.00
1602;DHT22;794;48.592;9.634;2023-04-06T09:35:14;15.10;1.00
1602;DHT22;794;48.592;9.634;2023-04-06T09:37:43;15.40;1.00
1602;DHT22;794;48.592;9.634;2023-04-06T09:40:12;16.70;1.00
1602;DHT22;794;48.592;9.634;2023-04-06T09:42:42;16.00;1.00
1602;DHT22;794;48.592;9.634;2023-04-06T09:45:10;15.90;1.00
1602;DHT22;794;48.592;9.634;2023-04-06T09:47:37;15.80;1.00
1602;DHT22;794;48.592;9.634;2023-04-06T09:50:07;16.60;1.00
1602;DHT22;794;48.592;9.634;2023-04-06T09:52:40;17.70;1.00
1602;DHT22;794;48.592;9.634;2023-04-06T09:55:09;18.60;1.00
1602;DHT22;794;48.592;9.634;2023-04-06T09:57:45;19.30;1.00
1602;DHT22;794;48.592;9.634;2023-04-06T10:00:16;17.80;1.00
1602;DHT22;794;48.592;9.634;2023-04-06T10:02:48;18.30;1.00
1602;DHT22;794;48.592;9.634;2023-04-06T10:05:20;17.20;1.00
1602;DHT22;794;48.592;9.634;2023-04-06T10:07:51;15.60;1.00
1602;DHT22;794;48.592;9.634;2023-04-06T10:10:20;15.50;1.00
1602;DHT22;794;48.592;9.634;2023-04-06T10:12:48;15.00;1.00
1602;DHT22;794;48.592;9.634;2023-04-06T10:15:15;15.00;1.00
1602;DHT22;794;48.592;9.634;2023-04-06T10:17:43;15.50;1.00
1602;DHT22;794;48.592;9.634;2023-04-06T10:20:26;15.70;1.00
1602;DHT22;794;48.592;9.634;2023-04-06T10:22:58;15.50;1.00
1602;DHT22;794;48.592;9.634;2023-04-06T10:25:28;15.10;1.00
1602;DHT22;794;48.592;9.634;2023-04-06T10:28:04;14.50;1.00
1602;DHT22;794;48.592;9.634;2023-04-06T10:30:33;14.30;1.00
1602;DHT22;794;48.592;9.634;2023-04-06T10:33:00;14.30;1.00
1602;DHT22;794;48.592;9.634;2023-04-06T10:35:37;13.80;1.00
1602;DHT22;794;48.592;9.634;2023-04-06T10:38:05;12.80;1.00
1602;DHT22;794;48.592;9.634;2023-04-06T10:40:36;12.70;1.00
1602;DHT22;794;48.592;9.634;2023-04-06T10:43:08;13.10;1.00
1602;DHT22;794;48.592;9.634;2023-04-06T10:45:36;13.60;1.00
1602;DHT22;794;48.592;9.634;2023-04-06T10:48:13;14.90;1.00
1602;DHT22;794;48.592;9.634;2023-04-06T10:50:41;13.80;1.00
1602;DHT22;794;48.592;9.634;2023-04-06T10:53:08;13.60;1.00
1602;DHT22;794;48.592;9.634;2023-04-06T10:55:39;13.60;1.00
1602;DHT22;794;48.592;9.634;2023-04-06T10:58:06;12.90;1.00
1602;DHT22;794;48.592;9.634;2023-04-06T11:00:34;12.40;1.00
1602;DHT22;794;48.592;9.634;2023-04-06T11:03:01;12.30;1.00
1602;DHT22;794;48.592;9.634;2023-04-06T11:05:28;12.00;1.00
1602;DHT22;794;48.592;9.634;2023-04-06T11:07:56;11.70;1.00
1602;DHT22;794;48.592;9.634;2023-04-06T11:10:23;11.60;1.00
1602;DHT22;794;48.592;9.634;2023-04-06T11:12:54;13.30;1.00
1602;DHT22;794;48.592;9.634;2023-04-06T11:15:22;12.10;1.00
1602;DHT22;794;48.592;9.634;2023-04-06T11:17:49;12.10;1.00
1602;DHT22;794;48.592;9.634;2023-04-06T11:20:16;12.30;1.00
1602;DHT22;794;48.592;9.634;2023-04-06T11:22:49;12.30;1.00
1602;DHT22;794;48.592;9.634;2023-04-06T11:25:16;12.40;1.00
1602;DHT22;794;48.592;9.634;2023-04-06T11:27:45;12.40;1.00
1602;DHT22;794;48.592;9.634;2023-04-06T11:30:14;12.60;1.00
1602;DHT22;794;48.592;9.634;2023-04-06T11:32:42;12.80;1.00
1602;DHT22;794;48.592;9.634;2023-04-06T11:35:11;12.60;1.00
1602;DHT22;794;48.592;9.634;2023-04-06T11:37:39;12.30;1.00
1602;DHT22;794;48.592;9.634;2023-04-06T11:40:08;12.10;1.00
1602;DHT22;794;48.592;9.634;2023-04-06T11:42:35;11.80;1.00
1602;DHT22;794;48.592;9.634;2023-04-06T11:45:03;11.60;1.00
1602;DHT22;794;48.592;9.634;2023-04-06T11:47:34;11.40;1.00
1602;DHT22;794;48.592;9.634;2023-04-06T11:50:08;11.80;1.00
1602;DHT22;794;48.592;9.634;2023-04-06T11:52:35;12.10;1.00
1602;DHT22;794;48.592;9.634;2023-04-06T11:55:11;12.40;1.00
1602;DHT22;794;48.592;9.634;2023-04-06T11:57:40;12.10;1.00
1602;DHT22;794;48.592;9.634;2023-04-06T12:00:08;11.90;1.00
1602;DHT22;794;48.592;9.634;2023-04-06T12:02:36;11.70;1.00
1602;DHT22;794;48.592;9.634;2023-04-06T12:05:05;10.90;1.00
1602;DHT22;794;48.592;9.634;2023-04-06T12:07:32;11.20;1.00
1602;DHT22;794;48.592;9.634;2023-04-06T12:10:01;11.10;1.00
1602;DHT22;794;48.592;9.634;2023-04-06T12:12:29;11.00;1.00
1602;DHT22;794;48.592;9.634;2023-04-06T12:14:57;10.90;1.00
1602;DHT22;794;48.592;9.634;2023-04-06T12:17:24;10.80;1.00
1602;DHT22;794;48.592;9.634;2023-04-06T12:19:52;10.40;1.00
1602;DHT22;794;48.592;9.634;2023-04-06T12:22:19;11.20;1.00
1602;DHT22;794;48.592;9.634;2023-04-06T12:24:47;11.10;1.00
1602;DHT22;794;48.592;9.634;2023-04-06T12:27:14;11.10;1.00
1602;DHT22;794;48.592;9.634;2023-04-06T12:29:42;11.40;1.00
1602;DHT22;794;48.592;9.634;2023-04-06T12:32:09;11.40;1.00
1602;DHT22;794;48.592;9.634;2023-04-06T12:34:38;11.10;1.00
1602;DHT22;794;48.592;9.634;2023-04-06T12:37:06;10.80;1.00
1602;DHT22;794;48.592;9.634;2023-04-06T12:39:33;11.20;1.00
1602;DHT22;794;48.592;9.634;2023-04-06T12:42:01;11.20;1.00
1602;DHT22;794;48.592;9.634;2023-04-06T12:44:29;10.80;1.00
1602;DHT22;794;48.592;9.634;2023-04-06T12:46:56;10.90;1.00
1602;DHT22;794;48.592;9.634;2023-04-06T12:49:23;11.20;1.00
1602;DHT22;794;48.592;9.634;2023-04-06T12:51:51;11.30;1.00
1602;DHT22;794;48.592;9.634;2023-04-06T12:54:19;11.60;1.00
1602;DHT22;794;48.592;9.634;2023-04-06T12:56:46;11.30;1.00
1602;DHT22;794;48.592;9.634;2023-04-06T12:59:13;11.40;1.00
1602;DHT22;794;48.592;9.634;2023-04-06T13:01:41;11.50;1.00
1602;DHT22;794;48.592;9.634;2023-04-06T13:04:09;11.40;1.00
1602;DHT22;794;48.592;9.634;2023-04-06T13:06:36;11.30;1.00
1602;DHT22;794;48.592;9.634;2023-04-06T13:09:04;11.40;1.00
1602;DHT22;794;48.592;9.634;2023-04-06T13:11:32;11.70;1.00
1602;DHT22;794;48.592;9.634;2023-04-06T13:14:00;11.80;1.00
1602;DHT22;794;48.592;9.634;2023-04-06T13:16:27;11.90;1.00
1602;DHT22;794;48.592;9.634;2023-04-06T13:18:54;12.00;1.00
1602;DHT22;794;48.592;9.634;2023-04-06T13:21:21;11.50;1.00
1602;DHT22;794;48.592;9.634;2023-04-06T13:23:48;11.80;1.00
1602;DHT22;794;48.592;9.634;2023-04-06T13:26:15;11.50;1.00
1602;DHT22;794;48.592;9.634;2023-04-06T13:28:44;11.30;1.00
1602;DHT22;794;48.592;9.634;2023-04-06T13:31:11;11.50;1.00
1602;DHT22;794;48.592;9.634;2023-04-06T13:33:38;11.70;1.00
1602;DHT22;794;48.592;9.634;2023-04-06T13:36:06;11.50;1.00
1602;DHT22;794;48.592;9.634;2023-04-06T13:38:34;11.80;1.00
1602;DHT22;794;48.592;9.634;2023-04-06T13:41:01;12.10;1.00
1602;DHT22;794;48.592;9.634;2023-04-06T13:43:28;12.10;1.00
1602;DHT22;794;48.592;9.634;2023-04-06T13:45:57;12.00;1.00
1602;DHT22;794;48.592;9.634;2023-04-06T13:48:26;12.40;1.00
1602;DHT22;794;48.592;9.634;2023-04-06T13:50:53;11.90;1.00
1602;DHT22;794;48.592;9.634;2023-04-06T13:53:20;11.80;1.00
1602;DHT22;794;48.592;9.634;2023-04-06T13:55:53;11.90;1.00
1602;DHT22;794;48.592;9.634;2023-04-06T13:58:20;12.00;1.00
1602;DHT22;794;48.592;9.634;2023-04-06T14:00:47;11.80;1.00
1602;DHT22;794;48.592;9.634;2023-04-06T14:03:16;11.90;1.00
1602;DHT22;794;48.592;9.634;2023-04-06T14:05:44;12.20;1.00
1602;DHT22;794;48.592;9.634;2023-04-06T14:08:11;12.20;1.00
1602;DHT22;794;48.592;9.634;2023-04-06T14:10:38;12.20;1.00
1602;DHT22;794;48.592;9.634;2023-04-06T14:13:06;12.10;1.00
1602;DHT22;794;48.592;9.634;2023-04-06T14:15:33;12.20;1.00
1602;DHT22;794;48.592;9.634;2023-04-06T14:18:00;11.10;1.00
1602;DHT22;794;48.592;9.634;2023-04-06T14:20:30;12.20;1.00
1602;DHT22;794;48.592;9.634;2023-04-06T14:22:59;12.30;1.00
1602;DHT22;794;48.592;9.634;2023-04-06T14:25:26;12.40;1.00
1602;DHT22;794;48.592;9.634;2023-04-06T14:27:53;12.30;1.00
1602;DHT22;794;48.592;9.634;2023-04-06T14:30:20;12.50;1.00
1602;DHT22;794;48.592;9.634;2023-04-06T14:32:47;12.20;1.00
1602;DHT22;794;48.592;9.634;2023-04-06T14:35:14;12.00;1.00
1602;DHT22;794;48.592;9.634;2023-04-06T14:37:43;12.20;1.00
1602;DHT22;794;48.592;9.634;2023-04-06T14:40:10;12.50;1.00
1602;DHT22;794;48.592;9.634;2023-04-06T14:42:37;12.50;1.00
1602;DHT22;794;48.592;9.634;2023-04-06T14:45:05;12.40;1.00
1602;DHT22;794;48.592;9.634;2023-04-06T14:47:32;12.70;1.00
1602;DHT22;794;48.592;9.634;2023-04-06T14:49:59;12.80;1.00
1602;DHT22;794;48.592;9.634;2023-04-06T14:52:27;12.70;1.00
1602;DHT22;794;48.592;9.634;2023-04-06T14:54:55;12.70;1.00
1602;DHT22;794;48.592;9.634;2023-04-06T14:57:22;13.10;1.00
1602;DHT22;794;48.592;9.634;2023-04-06T14:59:52;12.90;1.00
1602;DHT22;794;48.592;9.634;2023-04-06T15:02:19;12.90;1.00
1602;DHT22;794;48.592;9.634;2023-04-06T15:04:46;12.90;1.00
1602;DHT22;794;48.592;9.634;2023-04-06T15:07:13;12.80;1.00
1602;DHT22;794;48.592;9.634;2023-04-06T15:09:40;13.00;1.00
1602;DHT22;794;48.592;9.634;2023-04-06T15:12:08;12.70;1.00
1602;DHT22;794;48.592;9.634;2023-04-06T15:14:35;12.40;1.00
1602;DHT22;794;48.592;9.634;2023-04-06T15:17:03;12.70;1.00
1602;DHT22;794;48.592;9.634;2023-04-06T15:19:30;12.60;1.00
1602;DHT22;794;48.592;9.634;2023-04-06T15:21:57;12.70;1.00
1602;DHT22;794;48.592;9.634;2023-04-06T15:24:24;12.80;1.00
1602;DHT22;794;48.592;9.634;2023-04-06T15:26:50;13.10;1.00
1602;DHT22;794;48.592;9.634;2023-04-06T15:29:19;13.00;1.00
1602;DHT22;794;48.592;9.634;2023-04-06T15:31:46;13.40;1.00
1602;DHT22;794;48.592;9.634;2023-04-06T15:34:13;13.40;1.00
1602;DHT22;794;48.592;9.634;2023-04-06T15:36:41;12.20;1.00
1602;DHT22;794;48.592;9.634;2023-04-06T15:39:11;13.40;1.00
1602;DHT22;794;48.592;9.634;2023-04-06T15:41:42;13.60;1.00
1602;DHT22;794;48.592;9.634;2023-04-06T15:44:11;14.40;1.00
1602;DHT22;794;48.592;9.634;2023-04-06T15:46:40;13.60;1.00
1602;DHT22;794;48.592;9.634;2023-04-06T15:49:07;13.00;1.00
1602;DHT22;794;48.592;9.634;2023-04-06T15:51:35;13.10;1.00
1602;DHT22;794;48.592;9.634;2023-04-06T15:54:03;12.80;1.00
1602;DHT22;794;48.592;9.634;2023-04-06T15:56:31;13.20;1.00
1602;DHT22;794;48.592;9.634;2023-04-06T15:58:58;12.90;1.00
1602;DHT22;794;48.592;9.634;2023-04-06T16:01:25;12.90;1.00
1602;DHT22;794;48.592;9.634;2023-04-06T16:03:53;13.20;1.00
1602;DHT22;794;48.592;9.634;2023-04-06T16:06:20;13.60;1.00
1602;DHT22;794;48.592;9.634;2023-04-06T16:08:47;13.40;1.00
1602;DHT22;794;48.592;9.634;2023-04-06T16:11:14;13.00;1.00
1602;DHT22;794;48.592;9.634;2023-04-06T16:13:41;12.80;1.00
1602;DHT22;794;48.592;9.634;2023-04-06T16:16:08;12.70;1.00
1602;DHT22;794;48.592;9.634;2023-04-06T16:18:35;12.40;1.00
1602;DHT22;794;48.592;9.634;2023-04-06T16:21:04;12.40;1.00
1602;DHT22;794;48.592;9.634;2023-04-06T16:23:31;12.10;1.00
1602;DHT22;794;48.592;9.634;2023-04-06T16:25:59;11.80;1.00
1602;DHT22;794;48.592;9.634;2023-04-06T16:28:26;11.70;1.00
1602;DHT22;794;48.592;9.634;2023-04-06T16:30:53;11.80;1.00
1602;DHT22;794;48.592;9.634;2023-04-06T16:33:20;11.60;1.00
1602;DHT22;794;48.592;9.634;2023-04-06T16:35:48;11.60;1.00
1602;DHT22;794;48.592;9.634;2023-04-06T16:38:17;11.40;1.00
1602;DHT22;794;48.592;9.634;2023-04-06T16:40:44;11.30;1.00
1602;DHT22;794;48.592;9.634;2023-04-06T16:43:12;11.40;1.00